createdAt,value
2023-04-05T00:02:18.711Z,7.61
2023-04-05T00:04:50.609Z,7.47
2023-04-05T00:07:19.201Z,7.45
2023-04-05T00:09:46.530Z,7.58
2023-04-05T00:12:13.524Z,7.62
2023-04-05T00:14:40.821Z,7.61
2023-04-05T00:17:09.483Z,7.56
2023-04-05T00:19:39.215Z,7.40
2023-04-05T00:22:06.049Z,7.11
2023-04-05T00:24:33.971Z,7.12
2023-04-05T00:27:01.219Z,7.17
2023-04-05T00:29:28.485Z,7.18
2023-04-05T00:31:56.567Z,7.18
2023-04-05T00:34:23.465Z,7.15
2023-04-05T00:36:50.499Z,7.05
2023-04-05T00:39:17.472Z,7.02
2023-04-05T00:41:46.395Z,6.84
2023-04-05T00:44:15.012Z,6.72
2023-04-05T00:46:42.218Z,6.79
2023-04-05T00:49:09.568Z,6.88
2023-04-05T00:51:38.039Z,6.88
2023-04-05T00:54:05.604Z,6.81
2023-04-05T00:56:32.923Z,6.63
2023-04-05T00:58:59.727Z,6.54
2023-04-05T01:01:28.011Z,6.57
2023-04-05T01:04:02.972Z,6.55
2023-04-05T01:06:52.499Z,6.51
2023-04-05T01:09:47.270Z,6.36
2023-04-05T01:12:17.988Z,6.34
2023-04-05T01:14:50.211Z,6.49
2023-04-05T01:17:28.263Z,6.51
2023-04-05T01:19:58.985Z,6.48
2023-04-05T01:22:38.030Z,6.58
2023-04-05T01:25:39.072Z,6.58
2023-04-05T01:28:43.444Z,6.47
2023-04-05T01:31:16.373Z,6.45
2023-04-05T01:34:08.487Z,6.38
2023-04-05T01:36:45.386Z,6.35
2023-04-05T01:39:15.272Z,5.98
2023-04-05T01:41:43.292Z,6.17
2023-04-05T01:44:10.056Z,6.04
2023-04-05T01:46:36.862Z,5.97
2023-04-05T01:49:04.340Z,6.10
2023-04-05T01:51:32.283Z,6.04
2023-04-05T01:54:00.302Z,5.95
2023-04-05T01:56:27.383Z,5.87
2023-04-05T01:58:54.155Z,5.97
2023-04-05T02:01:21.082Z,6.04
2023-04-05T02:03:47.946Z,6.06
2023-04-05T02:06:14.683Z,5.92
2023-04-05T02:08:41.384Z,6.01
2023-04-05T02:11:08.165Z,6.06
2023-04-05T02:13:34.947Z,6.04
2023-04-05T02:16:01.742Z,6.09
2023-04-05T02:18:31.893Z,5.96
2023-04-05T02:21:04.664Z,6.02
2023-04-05T02:23:32.658Z,6.04
2023-04-05T02:25:59.601Z,6.17
2023-04-05T02:28:26.887Z,6.17
2023-04-05T02:30:54.542Z,6.15
2023-04-05T02:33:22.834Z,6.05
2023-04-05T02:35:52.087Z,5.89
2023-04-05T02:38:19.286Z,5.78
2023-04-05T02:40:48.784Z,5.73
2023-04-05T02:43:15.496Z,5.60
2023-04-05T02:45:42.245Z,5.77
2023-04-05T02:48:09.189Z,5.90
2023-04-05T02:50:36.011Z,5.94
2023-04-05T02:53:02.998Z,5.96
2023-04-05T02:55:31.043Z,6.05
2023-04-05T02:58:02.868Z,6.13
2023-04-05T03:00:42.430Z,5.91
2023-04-05T03:03:10.519Z,5.84
2023-04-05T03:05:43.380Z,5.69
2023-04-05T03:08:19.500Z,5.56
2023-04-05T03:10:56.878Z,5.71
2023-04-05T03:13:23.634Z,5.67
2023-04-05T03:15:54.191Z,5.73
2023-04-05T03:18:21.251Z,5.78
2023-04-05T03:20:50.290Z,5.79
2023-04-05T03:23:20.739Z,5.76
2023-04-05T03:26:03.251Z,5.87
2023-04-05T03:28:34.524Z,5.93
2023-04-05T03:31:05.192Z,6.00
2023-04-05T03:33:32.701Z,5.98
2023-04-05T03:35:59.802Z,5.92
2023-04-05T03:38:28.993Z,5.83
2023-04-05T03:41:08.561Z,5.73
2023-04-05T03:43:36.452Z,5.70
2023-04-05T03:46:03.383Z,5.65
2023-04-05T03:48:30.507Z,5.51
2023-04-05T03:50:57.302Z,5.51
2023-04-05T03:53:24.102Z,5.56
2023-04-05T03:55:55.730Z,5.67
2023-04-05T03:58:37.554Z,5.51
2023-04-05T04:01:04.480Z,5.61
2023-04-05T04:03:31.656Z,5.51
2023-04-05T04:06:00.163Z,5.60
2023-04-05T04:08:28.160Z,5.54
2023-04-05T04:11:01.516Z,5.58
2023-04-05T04:13:32.426Z,5.51
2023-04-05T04:16:04.064Z,5.48
2023-04-05T04:18:54.339Z,5.34
2023-04-05T04:21:52.384Z,5.33
2023-04-05T04:24:53.528Z,5.37
2023-04-05T04:27:50.595Z,5.42
2023-04-05T04:30:37.328Z,5.46
2023-04-05T04:33:13.515Z,5.42
2023-04-05T04:36:07.870Z,5.41
2023-04-05T04:38:54.755Z,5.36
2023-04-05T04:41:47.056Z,5.35
2023-04-05T04:44:46.164Z,5.33
2023-04-05T04:47:21.832Z,5.29
2023-04-05T04:50:10.404Z,5.23
2023-04-05T04:52:38.855Z,5.22
2023-04-05T04:55:08.289Z,5.21
2023-04-05T04:57:35.480Z,5.18
2023-04-05T05:00:08.022Z,5.19
2023-04-05T05:02:34.820Z,5.10
2023-04-05T05:05:01.555Z,5.18
2023-04-05T05:07:28.861Z,5.13
2023-04-05T05:09:55.806Z,5.13
2023-04-05T05:12:23.524Z,5.08
2023-04-05T05:14:50.308Z,5.04
2023-04-05T05:17:17.105Z,5.00
2023-04-05T05:19:43.860Z,4.95
2023-04-05T05:22:10.801Z,5.03
2023-04-05T05:24:37.576Z,5.09
2023-04-05T05:27:04.679Z,5.14
2023-04-05T05:29:32.650Z,5.21
2023-04-05T05:31:59.428Z,5.34
2023-04-05T05:34:26.536Z,5.43
2023-04-05T05:36:56.493Z,5.56
2023-04-05T05:39:23.606Z,5.74
2023-04-05T05:41:50.504Z,5.96
2023-04-05T05:44:17.344Z,6.37
2023-04-05T05:46:44.099Z,6.87
2023-04-05T05:49:11.424Z,6.97
2023-04-05T05:51:38.170Z,7.40
2023-04-05T05:54:04.972Z,7.75
2023-04-05T05:56:31.724Z,7.66
2023-04-05T05:58:59.540Z,7.72
2023-04-05T06:01:28.105Z,7.49
2023-04-05T06:03:55.736Z,7.37
2023-04-05T06:06:23.233Z,7.23
2023-04-05T06:08:51.384Z,7.30
2023-04-05T06:11:22.947Z,7.44
2023-04-05T06:13:52.589Z,7.57
2023-04-05T06:16:19.572Z,7.86
2023-04-05T06:18:46.527Z,8.31
2023-04-05T06:21:14.301Z,8.86
2023-04-05T06:23:42.141Z,9.52
2023-04-05T06:26:09.383Z,10.12
2023-04-05T06:28:39.219Z,11.09
2023-04-05T06:31:06.015Z,12.37
2023-04-05T06:33:32.710Z,13.72
2023-04-05T06:35:59.493Z,15.13
2023-04-05T06:38:26.228Z,16.06
2023-04-05T06:40:52.996Z,17.65
2023-04-05T06:43:19.781Z,18.56
2023-04-05T06:45:46.534Z,18.86
2023-04-05T06:48:13.416Z,19.55
2023-04-05T06:50:41.046Z,19.87
2023-04-05T06:53:08.028Z,20.23
2023-04-05T06:55:34.814Z,20.69
2023-04-05T06:58:01.646Z,20.93
2023-04-05T07:00:28.407Z,20.69
2023-04-05T07:02:55.288Z,21.50
2023-04-05T07:05:22.103Z,21.73
2023-04-05T07:07:48.900Z,21.36
2023-04-05T07:10:16.348Z,21.25
2023-04-05T07:12:43.064Z,21.17
2023-04-05T07:15:10.451Z,22.13
2023-04-05T07:17:37.267Z,22.54
2023-04-05T07:20:06.828Z,23.02
2023-04-05T07:22:34.462Z,23.37
2023-04-05T07:25:02.464Z,23.31
2023-04-05T07:27:32.190Z,23.39
2023-04-05T07:29:59.091Z,25.00
2023-04-05T07:32:25.987Z,25.09
2023-04-05T07:34:53.017Z,25.36
2023-04-05T07:37:19.767Z,26.03
2023-04-05T07:39:46.493Z,26.75
2023-04-05T07:42:13.216Z,26.82
2023-04-05T07:44:39.998Z,26.47
2023-04-05T07:47:06.747Z,26.58
2023-04-05T07:49:33.717Z,25.99
2023-04-05T07:52:00.470Z,27.06
2023-04-05T07:54:27.245Z,27.11
2023-04-05T07:56:55.343Z,27.60
2023-04-05T07:59:22.262Z,28.54
2023-04-05T08:01:49.059Z,28.10
2023-04-05T08:04:15.798Z,28.93
2023-04-05T08:06:42.532Z,29.43
2023-04-05T08:09:10.848Z,29.94
2023-04-05T08:11:37.836Z,30.60
2023-04-05T08:14:04.604Z,31.31
2023-04-05T08:16:31.428Z,31.08
2023-04-05T08:18:58.228Z,31.57
2023-04-05T08:21:25.022Z,31.92
2023-04-05T08:23:51.932Z,31.97
2023-04-05T08:26:18.777Z,31.33
2023-04-05T08:28:45.499Z,29.86
2023-04-05T08:31:13.707Z,30.91
2023-04-05T08:33:40.879Z,31.39
2023-04-05T08:36:08.877Z,31.48
2023-04-05T08:38:35.775Z,31.65
2023-04-05T08:41:14.477Z,32.47
2023-04-05T08:44:02.961Z,32.13
2023-04-05T08:46:31.762Z,31.07
2023-04-05T08:48:58.882Z,31.57
2023-04-05T08:51:26.313Z,32.27
2023-04-05T08:53:53.635Z,33.01
2023-04-05T08:56:25.391Z,33.16
2023-04-05T08:59:08.475Z,32.65
2023-04-05T09:01:44.812Z,31.72
2023-04-05T09:04:23.313Z,33.52
2023-04-05T09:06:51.536Z,34.05
2023-04-05T09:09:22.527Z,33.56
2023-04-05T09:11:50.262Z,34.35
2023-04-05T09:14:17.945Z,33.19
2023-04-05T09:16:44.742Z,32.76
2023-04-05T09:19:11.625Z,34.17
2023-04-05T09:21:57.896Z,35.09
2023-04-05T09:24:35.514Z,33.12
2023-04-05T09:27:06.261Z,32.57
2023-04-05T09:29:33.091Z,33.81
2023-04-05T09:32:05.239Z,34.18
2023-04-05T09:34:37.439Z,35.81
2023-04-05T09:37:19.106Z,35.01
2023-04-05T09:39:47.205Z,35.24
2023-04-05T09:42:16.465Z,34.95
2023-04-05T09:44:54.218Z,35.78
2023-04-05T09:47:23.235Z,34.99
2023-04-05T09:49:54.340Z,35.65
2023-04-05T09:52:28.803Z,35.29
2023-04-05T09:54:57.378Z,35.02
2023-04-05T09:57:27.278Z,33.59
2023-04-05T09:59:54.457Z,35.65
2023-04-05T10:02:25.407Z,35.48
2023-04-05T10:04:52.402Z,33.91
2023-04-05T10:07:20.069Z,34.70
2023-04-05T10:09:48.408Z,33.88
2023-04-05T10:12:29.054Z,34.07
2023-04-05T10:14:57.072Z,34.50
2023-04-05T10:17:29.900Z,36.05
2023-04-05T10:20:17.929Z,36.63
2023-04-05T10:22:59.821Z,36.07
2023-04-05T10:25:53.078Z,35.03
2023-04-05T10:28:23.086Z,36.22
2023-04-05T10:30:55.751Z,37.09
2023-04-05T10:33:27.401Z,35.82
2023-04-05T10:36:22.709Z,36.82
2023-04-05T10:39:23.038Z,36.44
2023-04-05T10:41:54.359Z,37.00
2023-04-05T10:44:26.487Z,36.38
2023-04-05T10:46:55.830Z,35.74
2023-04-05T10:49:32.418Z,35.42
2023-04-05T10:51:59.593Z,35.15
2023-04-05T10:54:26.764Z,35.79
2023-04-05T10:56:54.992Z,35.81
2023-04-05T10:59:22.700Z,36.01
2023-04-05T11:01:50.781Z,37.56
2023-04-05T11:04:18.200Z,37.08
2023-04-05T11:06:48.087Z,37.31
2023-04-05T11:09:20.417Z,36.32
2023-04-05T11:11:48.276Z,35.92
2023-04-05T11:14:33.662Z,34.05
2023-04-05T11:17:00.603Z,35.69
2023-04-05T11:19:42.656Z,33.56
2023-04-05T11:22:10.362Z,34.15
2023-04-05T11:24:58.848Z,36.24
2023-04-05T11:27:29.131Z,35.36
2023-04-05T11:29:57.606Z,33.69
2023-04-05T11:32:37.783Z,33.78
2023-04-05T11:35:13.883Z,35.68
2023-04-05T11:38:06.158Z,36.74
2023-04-05T11:40:34.852Z,37.22
2023-04-05T11:43:08.500Z,37.41
2023-04-05T11:45:37.618Z,37.37
2023-04-05T11:48:13.466Z,37.27
2023-04-05T11:50:42.061Z,37.22
2023-04-05T11:53:17.221Z,34.05
2023-04-05T11:55:46.273Z,35.67
2023-04-05T11:58:21.599Z,35.63
2023-04-05T12:00:58.661Z,35.76
2023-04-05T12:03:28.862Z,37.28
2023-04-05T12:05:58.080Z,36.49
2023-04-05T12:08:38.577Z,35.49
2023-04-05T12:11:08.948Z,34.42
2023-04-05T12:13:36.584Z,33.96
2023-04-05T12:16:07.910Z,32.99
2023-04-05T12:18:36.873Z,31.91
2023-04-05T12:21:08.853Z,32.08
2023-04-05T12:23:37.314Z,31.87
2023-04-05T12:26:07.049Z,31.09
2023-04-05T12:28:58.466Z,29.46
2023-04-05T12:31:41.348Z,27.34
2023-04-05T12:34:09.114Z,25.94
2023-04-05T12:36:36.976Z,25.73
2023-04-05T12:39:07.517Z,25.38
2023-04-05T12:41:34.787Z,25.03
2023-04-05T12:44:27.825Z,24.33
2023-04-05T12:47:02.628Z,23.91
2023-04-05T12:49:35.350Z,23.32
2023-04-05T12:52:02.973Z,23.50
2023-04-05T12:54:32.044Z,21.84
2023-04-05T12:57:01.644Z,21.97
2023-04-05T12:59:28.507Z,21.93
2023-04-05T13:01:55.380Z,21.74
2023-04-05T13:04:23.124Z,22.29
2023-04-05T13:06:50.147Z,22.59
2023-04-05T13:09:17.186Z,22.84
2023-04-05T13:11:44.014Z,22.45
2023-04-05T13:14:10.700Z,22.27
2023-04-05T13:16:37.446Z,22.26
2023-04-05T13:19:04.234Z,21.96
2023-04-05T13:21:31.011Z,21.66
2023-04-05T13:23:58.023Z,21.61
2023-04-05T13:26:24.764Z,21.81
2023-04-05T13:28:51.509Z,21.96
2023-04-05T13:31:18.309Z,21.76
2023-04-05T13:33:45.247Z,21.86
2023-04-05T13:36:12.741Z,21.91
2023-04-05T13:38:39.901Z,21.76
2023-04-05T13:41:06.968Z,21.19
2023-04-05T13:43:34.003Z,21.40
2023-04-05T13:46:00.808Z,21.18
2023-04-05T13:48:27.592Z,21.23
2023-04-05T13:50:54.326Z,21.28
2023-04-05T13:53:21.024Z,21.16
2023-04-05T13:55:47.706Z,21.18
2023-04-05T13:58:14.598Z,20.92
2023-04-05T14:00:41.825Z,21.18
2023-04-05T14:03:08.999Z,20.42
2023-04-05T14:05:36.012Z,20.59
2023-04-05T14:08:02.870Z,20.83
2023-04-05T14:10:31.908Z,21.10
2023-04-05T14:12:58.681Z,20.77
2023-04-05T14:15:25.734Z,20.37
2023-04-05T14:17:52.601Z,20.48
2023-04-05T14:20:19.360Z,20.77
2023-04-05T14:22:46.214Z,20.17
2023-04-05T14:25:12.973Z,19.73
2023-04-05T14:27:42.433Z,19.05
2023-04-05T14:30:12.997Z,19.94
2023-04-05T14:32:40.156Z,19.65
2023-04-05T14:35:07.494Z,19.49
2023-04-05T14:37:34.264Z,20.09
2023-04-05T14:40:01.178Z,20.08
2023-04-05T14:42:41.045Z,19.89
2023-04-05T14:45:15.226Z,19.93
2023-04-05T14:47:42.077Z,19.88
2023-04-05T14:50:09.319Z,20.22
2023-04-05T14:52:36.216Z,20.51
2023-04-05T14:55:03.053Z,20.28
2023-04-05T14:57:29.821Z,19.79
2023-04-05T14:59:56.627Z,19.90
2023-04-05T15:02:23.436Z,19.84
2023-04-05T15:04:50.313Z,20.10
2023-04-05T15:07:17.030Z,19.90
2023-04-05T15:09:43.774Z,19.77
2023-04-05T15:12:10.539Z,19.83
2023-04-05T15:14:37.421Z,19.83
2023-04-05T15:17:04.373Z,19.96
2023-04-05T15:19:31.461Z,19.87
2023-04-05T15:21:58.315Z,20.05
2023-04-05T15:24:25.088Z,19.79
2023-04-05T15:26:52.041Z,19.38
2023-04-05T15:29:18.802Z,19.40
2023-04-05T15:31:45.863Z,19.30
2023-04-05T15:34:12.780Z,19.73
2023-04-05T15:36:39.673Z,19.62
2023-04-05T15:39:07.152Z,19.62
2023-04-05T15:41:34.691Z,19.60
2023-04-05T15:44:02.073Z,19.73
2023-04-05T15:46:29.700Z,19.47
2023-04-05T15:48:56.692Z,19.50
2023-04-05T15:51:23.421Z,19.71
2023-04-05T15:53:50.823Z,19.87
2023-04-05T15:56:18.181Z,19.80
2023-04-05T15:58:45.367Z,19.86
2023-04-05T16:01:12.454Z,19.58
2023-04-05T16:03:39.666Z,19.22
2023-04-05T16:06:06.777Z,19.40
2023-04-05T16:08:33.610Z,19.71
2023-04-05T16:11:00.607Z,19.61
2023-04-05T16:13:27.902Z,19.90
2023-04-05T16:15:54.694Z,19.91
2023-04-05T16:18:23.747Z,19.58
2023-04-05T16:20:50.574Z,19.46
2023-04-05T16:23:17.356Z,19.16
2023-04-05T16:25:44.216Z,18.68
2023-04-05T16:28:11.009Z,18.59
2023-04-05T16:30:37.894Z,18.77
2023-04-05T16:33:05.408Z,18.80
2023-04-05T16:35:32.296Z,18.78
2023-04-05T16:37:59.295Z,18.33
2023-04-05T16:40:26.446Z,18.31
2023-04-05T16:42:54.242Z,18.28
2023-04-05T16:45:21.501Z,18.29
2023-04-05T16:47:48.516Z,18.31
2023-04-05T16:50:15.455Z,18.02
2023-04-05T16:52:42.417Z,17.94
2023-04-05T16:55:09.758Z,17.82
2023-04-05T16:57:36.718Z,17.78
2023-04-05T17:00:05.438Z,17.70
2023-04-05T17:02:32.237Z,17.77
2023-04-05T17:04:59.059Z,17.89
2023-04-05T17:07:25.876Z,17.78
2023-04-05T17:09:52.628Z,17.72
2023-04-05T17:12:20.051Z,17.73
2023-04-05T17:14:46.831Z,17.63
2023-04-05T17:17:13.584Z,17.57
2023-04-05T17:19:40.412Z,17.49
2023-04-05T17:22:07.203Z,17.33
2023-04-05T17:24:36.086Z,17.47
2023-04-05T17:27:04.440Z,17.49
2023-04-05T17:29:31.247Z,17.52
2023-04-05T17:32:00.870Z,17.36
2023-04-05T17:34:27.667Z,17.38
2023-04-05T17:36:54.449Z,17.26
2023-04-05T17:39:21.476Z,17.20
2023-04-05T17:41:50.332Z,17.15
2023-04-05T17:44:17.154Z,17.11
2023-04-05T17:46:51.137Z,16.75
2023-04-05T17:49:24.379Z,16.78
2023-04-05T17:51:51.188Z,16.61
2023-04-05T17:54:18.076Z,16.60
2023-04-05T17:56:45.928Z,16.61
2023-04-05T17:59:12.780Z,16.52
2023-04-05T18:01:39.757Z,16.49
2023-04-05T18:04:12.405Z,16.46
2023-04-05T18:06:39.503Z,16.26
2023-04-05T18:09:08.617Z,16.16
2023-04-05T18:11:36.519Z,15.96
2023-04-05T18:14:03.652Z,15.85
2023-04-05T18:16:32.288Z,15.93
2023-04-05T18:18:59.163Z,15.90
2023-04-05T18:21:26.103Z,15.88
2023-04-05T18:23:52.913Z,15.69
2023-04-05T18:26:19.780Z,15.59
2023-04-05T18:28:46.645Z,15.73
2023-04-05T18:31:13.479Z,15.72
2023-04-05T18:33:40.858Z,15.58
2023-04-05T18:36:08.199Z,15.63
2023-04-05T18:38:35.362Z,15.36
2023-04-05T18:41:03.895Z,15.27
2023-04-05T18:43:31.138Z,15.24
2023-04-05T18:45:57.886Z,15.23
2023-04-05T18:48:25.457Z,15.17
2023-04-05T18:50:55.297Z,15.34
2023-04-05T18:53:22.316Z,15.38
2023-04-05T18:55:52.642Z,15.23
2023-04-05T18:58:20.350Z,15.09
2023-04-05T19:00:47.213Z,14.84
2023-04-05T19:03:16.221Z,14.71
2023-04-05T19:05:49.209Z,14.65
2023-04-05T19:08:16.620Z,14.48
2023-04-05T19:10:43.344Z,14.29
2023-04-05T19:13:10.249Z,14.19
2023-04-05T19:15:38.218Z,14.18
2023-04-05T19:18:05.551Z,14.17
2023-04-05T19:20:32.481Z,14.06
2023-04-05T19:22:59.294Z,14.10
2023-04-05T19:25:26.431Z,13.95
2023-04-05T19:27:54.851Z,13.79
2023-04-05T19:30:21.924Z,13.68
2023-04-05T19:32:49.252Z,13.63
2023-04-05T19:35:16.252Z,13.43
2023-04-05T19:37:43.105Z,13.25
2023-04-05T19:40:10.632Z,13.02
2023-04-05T19:42:37.491Z,13.00
2023-04-05T19:45:08.008Z,13.05
2023-04-05T19:47:35.894Z,13.11
2023-04-05T19:50:04.619Z,13.15
2023-04-05T19:52:47.220Z,13.13
2023-04-05T19:55:38.244Z,13.05
2023-04-05T19:58:10.076Z,13.06
2023-04-05T20:00:52.220Z,13.04
2023-04-05T20:03:30.313Z,12.95
2023-04-05T20:06:14.072Z,12.85
2023-04-05T20:08:46.844Z,12.89
2023-04-05T20:11:18.773Z,12.87
2023-04-05T20:13:51.155Z,12.80
2023-04-05T20:16:23.838Z,12.84
2023-04-05T20:18:50.795Z,12.79
2023-04-05T20:21:18.231Z,12.81
2023-04-05T20:23:45.440Z,12.79
2023-04-05T20:26:17.383Z,12.79
2023-04-05T20:28:54.857Z,12.76
2023-04-05T20:31:25.584Z,12.71
2023-04-05T20:33:58.776Z,12.66
2023-04-05T20:36:33.204Z,12.70
2023-04-05T20:39:02.307Z,12.62
2023-04-05T20:41:29.827Z,12.56
2023-04-05T20:43:56.690Z,12.56
2023-04-05T20:46:24.180Z,12.54
2023-04-05T20:48:53.389Z,12.45
2023-04-05T20:51:20.267Z,12.40
2023-04-05T20:53:47.017Z,12.30
2023-04-05T20:56:13.894Z,12.25
2023-04-05T20:58:40.979Z,12.18
2023-04-05T21:01:08.541Z,12.08
2023-04-05T21:03:37.871Z,11.96
2023-04-05T21:06:05.828Z,11.76
2023-04-05T21:08:32.875Z,11.62
2023-04-05T21:11:00.112Z,11.42
2023-04-05T21:13:27.095Z,11.42
2023-04-05T21:15:55.710Z,11.60
2023-04-05T21:18:25.601Z,11.46
2023-04-05T21:20:53.999Z,11.50
2023-04-05T21:23:28.790Z,11.49
2023-04-05T21:25:56.676Z,11.56
2023-04-05T21:28:24.982Z,11.56
2023-04-05T21:30:52.480Z,11.59
2023-04-05T21:33:20.093Z,11.54
2023-04-05T21:35:46.894Z,11.53
2023-04-05T21:38:15.651Z,11.52
2023-04-05T21:40:44.653Z,11.49
2023-04-05T21:43:13.244Z,11.39
2023-04-05T21:45:40.245Z,11.33
2023-04-05T21:48:07.188Z,11.20
2023-04-05T21:50:33.979Z,11.14
2023-04-05T21:53:00.781Z,11.06
2023-04-05T21:55:27.813Z,11.08
2023-04-05T21:57:54.592Z,11.07
2023-04-05T22:00:21.765Z,11.12
2023-04-05T22:02:48.701Z,11.05
2023-04-05T22:05:29.509Z,11.05
2023-04-05T22:08:03.666Z,10.93
2023-04-05T22:10:30.599Z,10.87
2023-04-05T22:12:57.510Z,10.75
2023-04-05T22:15:24.373Z,10.72
2023-04-05T22:17:51.309Z,10.70
2023-04-05T22:20:18.348Z,10.68
2023-04-05T22:22:45.361Z,10.68
2023-04-05T22:25:12.224Z,10.68
2023-04-05T22:27:39.511Z,10.62
2023-04-05T22:30:08.141Z,10.59
2023-04-05T22:32:35.721Z,10.52
2023-04-05T22:35:04.510Z,10.52
2023-04-05T22:37:35.745Z,10.37
2023-04-05T22:40:04.371Z,10.33
2023-04-05T22:42:31.536Z,10.40
2023-04-05T22:44:58.950Z,10.39
2023-04-05T22:47:26.024Z,10.36
2023-04-05T22:49:52.971Z,10.35
2023-04-05T22:52:19.793Z,10.38
2023-04-05T22:54:46.643Z,10.33
2023-04-05T22:57:13.509Z,10.23
2023-04-05T22:59:40.523Z,10.21
2023-04-05T23:02:07.458Z,10.25
2023-04-05T23:04:34.257Z,10.14
2023-04-05T23:07:01.057Z,9.97
2023-04-05T23:09:27.846Z,10.02
2023-04-05T23:11:54.586Z,10.01
2023-04-05T23:14:21.768Z,10.01
2023-04-05T23:16:48.624Z,10.01
2023-04-05T23:19:16.429Z,10.02
2023-04-05T23:21:43.171Z,10.03
2023-04-05T23:24:11.184Z,10.01
2023-04-05T23:26:38.177Z,9.83
2023-04-05T23:29:04.963Z,9.75
2023-04-05T23:31:31.749Z,9.63
2023-04-05T23:33:58.551Z,9.59
2023-04-05T23:36:25.979Z,9.54
2023-04-05T23:38:52.730Z,9.49
2023-04-05T23:41:19.524Z,9.49
2023-04-05T23:43:46.354Z,9.41
2023-04-05T23:46:13.399Z,9.38
2023-04-05T23:48:40.349Z,9.28
2023-04-05T23:51:07.185Z,9.30
2023-04-05T23:53:34.016Z,9.27
2023-04-05T23:56:01.011Z,9.30
2023-04-05T23:58:28.281Z,9.17
